Kabul, Afghanistan
Current Conditions -  °F | °C
As of 11:50 PM on Friday 31 Oct 2014 (Local Time) from OAKB Reporting Station
Scattered Clouds Scattered Clouds  
Wind Chill: 44°   Ceiling: Unl
Heat Index: 46°   Visibility: 5mi
Dew Point: 36°   Wind: 5mph
Humidity: 66%   Direction: 90°E
Pressure: 30.24"   Gusts: NA
Location:  34.53°N, 69.17°E
Report Text: OAKB 311950Z 09004KT 8000 SCT100 08/02 Q1024 NOSIG RMK BLU BLU
Loading
Personal Weather Stations






























Interactive Weather Map
Tropical Storm Tracking
New forecast layout! Learn more

10-Day Weather Forecast

Advertisements
Track Severe Weather on mobile